KCKB

North Central West Virginia Airport

Clarksburg, West Virginia, USA
METAR KCKB 201553Z VRB03KT 10SM FEW026 28/21 A3005 RMK AO2 SLP161 T02780206
Observed Flight Rules
Aug-20 @ 15:53 UTC (33 minutes ago) Visual Flight Rules
Wind Visibility Clouds
Variable at 3 knots 10 miles
  • Few at 2,600' AGL
Temperatures Readings
Current 28°C / 82°F
Dewpoint 21°C / 70°F
Humidity 66%
Altimeter 30.05" Hg
Pressure 1016.1 hPa
Elevation 360
METAR KCKB 201553Z VRB03KT 10SM FEW026 28/21 A3005 RMK AO2 SLP161 T02780206
Observed Flight Rules
Aug-20 @ 15:53 UTC
(33 minutes ago)
VFR
Wind Visibility
Variable at 3 knots 10 miles
Clouds
  • Few at 2,600' AGL
Temperature Dewpoint
28°C / 82°F 21°C / 70°F
Humidity Altimeter Pressure
66% 30.05" Hg 1016.1 hPa